createdAt,value
2023-08-25T00:01:43.878Z,100842.09
2023-08-25T00:04:14.440Z,100845.03
2023-08-25T00:06:44.736Z,100840.81
2023-08-25T00:09:15.074Z,100845.03
2023-08-25T00:11:45.344Z,100851.38
2023-08-25T00:14:15.682Z,100851.38
2023-08-25T00:16:45.981Z,100853.16
2023-08-25T00:19:17.834Z,100858.53
2023-08-25T00:21:48.941Z,100859.34
2023-08-25T00:24:19.466Z,100868.94
2023-08-25T00:26:49.868Z,100872.84
2023-08-25T00:29:20.252Z,100873.13
2023-08-25T00:31:50.378Z,100880.00
2023-08-25T00:34:20.643Z,100878.84
2023-08-25T00:36:51.467Z,100886.31
2023-08-25T00:39:22.192Z,100886.31
2023-08-25T00:41:53.761Z,100880.78
2023-08-25T00:44:24.091Z,100884.38
2023-08-25T00:46:56.731Z,100891.19
2023-08-25T00:49:27.924Z,100891.19
2023-08-25T00:51:59.034Z,100894.09
2023-08-25T00:54:32.163Z,100897.69
2023-08-25T00:57:03.445Z,100902.25
2023-08-25T00:59:35.116Z,100902.25
2023-08-25T01:02:07.886Z,100905.00
2023-08-25T01:04:37.912Z,100904.03
2023-08-25T01:07:08.293Z,100900.63
2023-08-25T01:09:38.980Z,100894.47
2023-08-25T01:12:20.775Z,100905.81
2023-08-25T01:15:16.165Z,100906.31
2023-08-25T01:17:57.811Z,100911.84
2023-08-25T01:20:30.172Z,100908.78
2023-08-25T01:23:22.851Z,100912.66
2023-08-25T01:25:55.853Z,100906.31
2023-08-25T01:28:29.875Z,100907.94
2023-08-25T01:31:02.785Z,100919.66
2023-08-25T01:33:36.012Z,100920.78
2023-08-25T01:36:10.456Z,100923.09
2023-08-25T01:39:00.979Z,100933.81
2023-08-25T01:41:36.232Z,100927.16
2023-08-25T01:44:07.472Z,100930.72
2023-08-25T01:46:39.643Z,100937.06
2023-08-25T01:49:11.075Z,100936.41
2023-08-25T01:51:41.438Z,100943.72
2023-08-25T01:54:11.758Z,100946.16
2023-08-25T01:56:41.689Z,100946.16
2023-08-25T01:59:11.651Z,100939.19
2023-08-25T02:01:41.667Z,100948.41
2023-08-25T02:04:11.597Z,100945.53
2023-08-25T02:06:41.695Z,100947.19
2023-08-25T02:09:12.611Z,100946.38
2023-08-25T02:11:43.029Z,100944.41
2023-08-25T02:14:21.141Z,100942.88
2023-08-25T02:16:51.090Z,100943.38
2023-08-25T02:19:20.875Z,100940.03
2023-08-25T02:21:55.388Z,100941.66
2023-08-25T02:24:25.585Z,100931.59
2023-08-25T02:26:55.372Z,100937.75
2023-08-25T02:29:25.417Z,100932.72
2023-08-25T02:31:56.826Z,100941.00
2023-08-25T02:34:26.876Z,100931.25
2023-08-25T02:36:56.622Z,100931.59
2023-08-25T02:39:26.548Z,100937.63
2023-08-25T02:41:56.356Z,100937.78
2023-08-25T02:44:26.600Z,100942.16
2023-08-25T02:46:56.587Z,100937.28
2023-08-25T02:49:28.574Z,100935.81
2023-08-25T02:51:59.829Z,100943.47
2023-08-25T02:54:30.241Z,100934.19
2023-08-25T02:57:01.661Z,100943.31
2023-08-25T02:59:31.864Z,100940.53
2023-08-25T03:02:01.724Z,100937.44
2023-08-25T03:04:32.239Z,100950.13
2023-08-25T03:07:02.451Z,100940.53
2023-08-25T03:09:33.563Z,100939.91
2023-08-25T03:12:03.597Z,100938.56
2023-08-25T03:14:33.732Z,100942.34
2023-08-25T03:17:03.670Z,100939.25
2023-08-25T03:19:33.438Z,100930.63
2023-08-25T03:22:03.383Z,100933.91
2023-08-25T03:24:35.914Z,100932.91
2023-08-25T03:27:06.049Z,100932.91
2023-08-25T03:29:35.793Z,100930.16
2023-08-25T03:32:05.582Z,100930.16
2023-08-25T03:34:35.894Z,100929.00
2023-08-25T03:37:07.230Z,100919.72
2023-08-25T03:39:37.469Z,100921.84
2023-08-25T03:44:53.442Z,100916.19
2023-08-25T03:47:23.261Z,100916.31
2023-08-25T03:49:54.247Z,100908.19
2023-08-25T03:52:24.256Z,100904.63
2023-08-25T03:54:54.023Z,100910.16
2023-08-25T03:57:23.800Z,100909.53
2023-08-25T03:59:53.548Z,100910.47
2023-08-25T04:02:23.358Z,100904.44
2023-08-25T04:04:59.662Z,100906.56
2023-08-25T04:07:29.792Z,100907.88
2023-08-25T04:09:59.568Z,100903.00
2023-08-25T04:12:29.466Z,100908.84
2023-08-25T04:14:59.169Z,100906.28
2023-08-25T04:17:30.446Z,100904.66
2023-08-25T04:20:00.989Z,100891.13
2023-08-25T04:22:30.909Z,100899.09
2023-08-25T04:25:02.695Z,100888.69
2023-08-25T04:27:32.610Z,100895.38
2023-08-25T04:30:02.372Z,100889.50
2023-08-25T04:32:33.152Z,100886.94
2023-08-25T04:35:03.848Z,100889.34
2023-08-25T04:37:34.987Z,100883.66
2023-08-25T04:40:06.231Z,100880.91
2023-08-25T04:42:36.929Z,100877.31
2023-08-25T04:45:08.497Z,100874.41
2023-08-25T04:47:38.499Z,100869.19
2023-08-25T04:50:10.596Z,100859.59
2023-08-25T04:52:42.478Z,100856.50
2023-08-25T04:55:14.869Z,100853.41
2023-08-25T04:57:45.446Z,100858.16
2023-08-25T05:00:15.757Z,100849.84
2023-08-25T05:02:45.989Z,100851.63
2023-08-25T05:05:16.998Z,100842.22
2023-08-25T05:07:48.916Z,100845.78
2023-08-25T05:10:19.464Z,100839.75
2023-08-25T05:12:49.432Z,100833.09
2023-08-25T05:15:19.837Z,100827.91
2023-08-25T05:17:49.856Z,100821.06
2023-08-25T05:20:22.310Z,100820.75
2023-08-25T05:22:54.291Z,100815.53
2023-08-25T05:25:25.902Z,100810.66
2023-08-25T05:27:56.397Z,100809.03
2023-08-25T05:30:26.580Z,100800.41
2023-08-25T05:32:57.764Z,100794.22
2023-08-25T05:35:41.832Z,100799.13
2023-08-25T05:38:13.366Z,100795.22
2023-08-25T05:40:43.409Z,100789.84
2023-08-25T05:43:13.268Z,100784.63
2023-08-25T05:45:42.983Z,100768.34
2023-08-25T05:48:12.789Z,100767.06
2023-08-25T05:50:42.888Z,100766.41
2023-08-25T05:53:14.044Z,100764.78
2023-08-25T05:55:44.886Z,100765.09
2023-08-25T05:58:14.762Z,100758.91
2023-08-25T06:00:45.625Z,100752.75
2023-08-25T06:03:15.540Z,100744.09
2023-08-25T06:05:45.363Z,100743.16
2023-08-25T06:08:15.157Z,100735.31
2023-08-25T06:10:44.926Z,100735.31
2023-08-25T06:13:14.782Z,100734.66
2023-08-25T06:15:44.511Z,100727.34
2023-08-25T06:18:14.262Z,100721.19
2023-08-25T06:20:44.455Z,100718.22
2023-08-25T06:23:16.752Z,100709.94
2023-08-25T06:25:47.874Z,100715.31
2023-08-25T06:28:17.785Z,100711.09
2023-08-25T06:30:47.663Z,100705.56
2023-08-25T06:33:18.309Z,100696.09
2023-08-25T06:35:48.554Z,100686.22
2023-08-25T06:38:18.576Z,100683.75
2023-08-25T06:40:48.460Z,100684.59
2023-08-25T06:43:18.597Z,100678.22
2023-08-25T06:45:48.441Z,100678.22
2023-08-25T06:48:18.176Z,100676.94
2023-08-25T06:50:47.965Z,100672.56
2023-08-25T06:53:17.970Z,100670.28
2023-08-25T06:55:47.766Z,100657.38
2023-08-25T06:58:17.875Z,100662.91
2023-08-25T07:00:47.945Z,100661.97
2023-08-25T07:03:17.713Z,100660.84
2023-08-25T07:05:47.504Z,100668.94
2023-08-25T07:08:17.287Z,100668.13
2023-08-25T07:10:49.180Z,100656.41
2023-08-25T07:13:19.203Z,100650.91
2023-08-25T07:15:48.991Z,100654.16
2023-08-25T07:18:18.936Z,100647.94
2023-08-25T07:20:48.831Z,100644.88
2023-08-25T07:23:18.624Z,100645.00
2023-08-25T07:25:48.467Z,100642.91
2023-08-25T07:28:18.373Z,100644.22
2023-08-25T07:30:48.153Z,100638.31
2023-08-25T07:33:18.140Z,100631.66
2023-08-25T07:35:48.039Z,100629.06
2023-08-25T07:38:18.462Z,100627.25
2023-08-25T07:40:48.354Z,100621.38
2023-08-25T07:43:18.131Z,100623.69
2023-08-25T07:45:48.024Z,100603.66
2023-08-25T07:48:17.892Z,100614.72
2023-08-25T07:50:47.943Z,100609.34
2023-08-25T07:53:17.925Z,100606.09
2023-08-25T07:55:48.938Z,100603.34
2023-08-25T07:58:19.623Z,100597.47
2023-08-25T08:00:49.659Z,100604.97
2023-08-25T08:03:19.579Z,100602.81
2023-08-25T08:05:49.522Z,100587.53
2023-08-25T08:08:19.326Z,100590.16
2023-08-25T08:10:49.118Z,100580.72
2023-08-25T08:13:18.840Z,100579.91
2023-08-25T08:15:48.661Z,100576.81
2023-08-25T08:18:18.420Z,100573.69
2023-08-25T08:20:49.286Z,100570.63
2023-08-25T08:23:19.347Z,100562.63
2023-08-25T08:25:49.139Z,100559.22
2023-08-25T08:28:18.959Z,100560.34
2023-08-25T08:30:49.691Z,100553.69
2023-08-25T08:33:20.380Z,100560.00
2023-08-25T08:35:50.321Z,100555.44
2023-08-25T08:38:20.092Z,100551.38
2023-08-25T08:40:51.248Z,100554.16
2023-08-25T08:43:22.185Z,100552.34
2023-08-25T08:45:55.532Z,100543.69
2023-08-25T08:48:25.888Z,100550.91
2023-08-25T08:50:56.039Z,100551.09
2023-08-25T08:53:25.923Z,100545.38
2023-08-25T08:55:55.949Z,100551.19
2023-08-25T08:58:25.793Z,100545.19
2023-08-25T09:00:56.177Z,100542.25
2023-08-25T09:03:28.065Z,100536.13
2023-08-25T09:06:01.479Z,100534.59
2023-08-25T09:08:31.630Z,100528.84
2023-08-25T09:11:06.086Z,100531.38
2023-08-25T09:13:39.463Z,100516.81
2023-08-25T09:16:18.349Z,100517.31
2023-08-25T09:18:49.948Z,100520.44
2023-08-25T09:21:23.020Z,100517.31
2023-08-25T09:23:59.631Z,100513.41
2023-08-25T09:26:30.678Z,100515.50
2023-08-25T09:29:02.021Z,100523.78
2023-08-25T09:31:32.664Z,100533.72
2023-08-25T09:34:04.164Z,100544.22
2023-08-25T09:36:34.140Z,100545.66
2023-08-25T09:39:08.019Z,100551.34
2023-08-25T09:41:38.404Z,100557.66
2023-08-25T09:44:08.222Z,100555.13
2023-08-25T09:46:38.073Z,100554.91
2023-08-25T09:49:09.291Z,100561.91
2023-08-25T09:51:40.674Z,100557.66
2023-08-25T09:54:20.478Z,100552.94
2023-08-25T09:56:51.018Z,100557.53
2023-08-25T09:59:21.056Z,100557.34
2023-08-25T10:01:50.883Z,100557.47
2023-08-25T10:04:20.919Z,100563.47
2023-08-25T10:06:50.922Z,100557.00
2023-08-25T10:09:22.350Z,100554.34
2023-08-25T10:11:53.327Z,100565.09
2023-08-25T10:14:29.738Z,100567.41
2023-08-25T10:17:03.916Z,100570.97
2023-08-25T10:19:35.755Z,100580.09
2023-08-25T10:22:06.620Z,100584.00
2023-08-25T10:24:38.413Z,100600.13
2023-08-25T10:27:08.777Z,100607.63
2023-08-25T10:29:39.365Z,100606.66
2023-08-25T10:32:09.344Z,100614.63
2023-08-25T10:34:40.674Z,100624.53
2023-08-25T10:37:14.303Z,100623.75
2023-08-25T10:39:51.672Z,100619.66
2023-08-25T10:42:29.949Z,100647.69
2023-08-25T10:45:00.694Z,100658.44
2023-08-25T10:47:31.643Z,100686.75
2023-08-25T10:50:07.099Z,100688.56
2023-08-25T10:52:37.343Z,100702.88
2023-08-25T10:55:45.493Z,100714.59
2023-08-25T10:58:21.462Z,100713.81
2023-08-25T11:01:04.385Z,100728.31
2023-08-25T11:04:08.025Z,100739.91
2023-08-25T11:06:48.509Z,100763.16
2023-08-25T11:09:24.130Z,100767.06
2023-08-25T11:12:01.274Z,100774.38
2023-08-25T11:14:38.844Z,100770.63
2023-08-25T11:17:10.258Z,100773.59
2023-08-25T11:19:42.582Z,100779.91
2023-08-25T11:22:13.462Z,100782.19
2023-08-25T11:24:43.682Z,100794.38
2023-08-25T11:27:14.574Z,100787.56
2023-08-25T11:29:48.274Z,100789.84
2023-08-25T14:00:07.841Z,100931.56
2023-08-25T14:02:47.000Z,100940.72
2023-08-25T14:05:21.253Z,100938.34
2023-08-25T14:07:54.873Z,100941.94
2023-08-25T14:10:26.599Z,100940.84
2023-08-25T14:12:58.087Z,100946.75
2023-08-25T14:15:28.375Z,100951.31
2023-08-25T14:17:58.938Z,100952.78
2023-08-25T14:20:29.297Z,100959.47
2023-08-25T14:22:59.477Z,100970.41
2023-08-25T14:25:29.770Z,100978.88
2023-08-25T14:28:01.322Z,100976.78
2023-08-25T14:30:31.623Z,100972.72
2023-08-25T14:33:02.065Z,100974.00
2023-08-25T14:35:33.056Z,100972.56
2023-08-25T14:38:03.932Z,100978.25
2023-08-25T14:40:34.309Z,100979.56
2023-08-25T14:43:04.810Z,100982.03
2023-08-25T14:45:39.507Z,100978.41
2023-08-25T14:48:10.937Z,100987.03
2023-08-25T14:50:41.214Z,100987.50
2023-08-25T14:53:12.014Z,100988.66
2023-08-25T14:55:42.418Z,100980.53
2023-08-25T14:58:12.755Z,100966.88
2023-08-25T15:00:43.026Z,100963.66
2023-08-25T15:03:13.525Z,100959.56
2023-08-25T15:05:44.246Z,100949.63
2023-08-25T15:08:14.954Z,100953.88
2023-08-25T15:10:46.395Z,100950.75
2023-08-25T15:13:16.424Z,100956.47
2023-08-25T15:15:48.213Z,100954.00
2023-08-25T15:18:20.019Z,100963.91
2023-08-25T15:21:08.557Z,100964.56
2023-08-25T15:23:39.067Z,100970.72
2023-08-25T15:26:09.483Z,100964.88
2023-08-25T15:28:40.136Z,100970.28
2023-08-25T15:31:13.913Z,100974.13
2023-08-25T15:33:48.086Z,100969.88
2023-08-25T15:36:19.419Z,100972.03
2023-08-25T15:38:50.037Z,100972.34
2023-08-25T15:41:21.442Z,100976.44
2023-08-25T15:43:51.966Z,100976.44
2023-08-25T15:46:22.344Z,100980.94
2023-08-25T15:48:53.406Z,100978.06
2023-08-25T15:51:23.850Z,100980.34
2023-08-25T15:53:54.250Z,100986.66
2023-08-25T15:56:24.814Z,100984.72
2023-08-25T15:58:55.484Z,100993.81
2023-08-25T16:01:25.889Z,100988.63
2023-08-25T16:03:56.298Z,100996.38
2023-08-25T16:06:26.612Z,100995.28
2023-08-25T16:08:56.958Z,100998.66
2023-08-25T16:11:27.270Z,100994.25
2023-08-25T16:13:57.640Z,100994.75
2023-08-25T16:16:28.065Z,100990.69
2023-08-25T16:18:58.344Z,100988.44
2023-08-25T16:21:29.213Z,100978.34
2023-08-25T16:23:59.449Z,100983.19
2023-08-25T16:26:31.025Z,100983.19
2023-08-25T16:29:01.729Z,100989.84
2023-08-25T16:31:32.105Z,100976.88
2023-08-25T16:34:02.647Z,100985.28
2023-08-25T16:36:32.923Z,100982.41
2023-08-25T16:39:03.442Z,100974.91
2023-08-25T16:41:33.791Z,100964.53
2023-08-25T16:44:04.091Z,100972.16
2023-08-25T16:46:34.485Z,100969.72
2023-08-25T16:49:05.249Z,100959.00
2023-08-25T16:51:35.638Z,100964.66
2023-08-25T16:54:05.912Z,100969.06
2023-08-25T16:56:36.398Z,100973.25
2023-08-25T16:59:06.828Z,100970.97
2023-08-25T17:01:37.145Z,100963.03
2023-08-25T17:04:07.768Z,100966.28
2023-08-25T17:06:38.144Z,100966.59
2023-08-25T17:09:08.596Z,100953.59
2023-08-25T17:11:38.963Z,100954.75
2023-08-25T17:14:09.366Z,100944.66
2023-08-25T17:16:40.240Z,100946.28
2023-08-25T17:19:10.649Z,100943.03
2023-08-25T17:21:40.956Z,100933.41
2023-08-25T17:24:11.378Z,100926.13
2023-08-25T17:26:42.764Z,100927.09
2023-08-25T17:29:13.177Z,100934.25
2023-08-25T17:31:43.524Z,100922.38
2023-08-25T17:34:13.879Z,100913.44
2023-08-25T17:36:44.242Z,100920.44
2023-08-25T17:39:14.816Z,100914.06
2023-08-25T17:41:45.129Z,100914.56
2023-08-25T17:44:15.504Z,100922.06
2023-08-25T17:46:45.906Z,100916.84
2023-08-25T17:49:16.405Z,100916.03
2023-08-25T17:51:48.271Z,100921.22
2023-08-25T17:54:22.860Z,100924.00
2023-08-25T17:56:53.121Z,100921.72
2023-08-25T17:59:23.589Z,100922.56
2023-08-25T18:01:54.565Z,100921.56
2023-08-25T18:04:24.991Z,100921.72
2023-08-25T18:06:55.847Z,100922.56
2023-08-25T18:09:26.264Z,100920.94
2023-08-25T18:11:57.827Z,100920.09
2023-08-25T18:14:28.292Z,100910.34
2023-08-25T18:16:58.999Z,100911.81
2023-08-25T18:19:29.398Z,100910.19
2023-08-25T18:22:00.124Z,100914.56
2023-08-25T18:24:30.600Z,100912.63
2023-08-25T18:27:01.035Z,100909.72
2023-08-25T18:29:31.364Z,100904.00
2023-08-25T18:32:02.946Z,100897.34
2023-08-25T18:34:33.547Z,100898.66
2023-08-25T18:37:03.986Z,100903.19
2023-08-25T18:39:34.277Z,100893.28
2023-08-25T18:42:07.223Z,100894.75
2023-08-25T18:44:39.640Z,100891.31
2023-08-25T18:47:11.332Z,100884.34
2023-08-25T18:49:41.750Z,100894.28
2023-08-25T18:52:12.416Z,100889.56
2023-08-25T18:54:42.794Z,100888.88
2023-08-25T18:57:13.026Z,100885.50
2023-08-25T18:59:43.548Z,100876.38
2023-08-25T19:02:14.134Z,100877.69
2023-08-25T19:04:44.520Z,100884.84
2023-08-25T19:07:14.827Z,100873.59
2023-08-25T19:09:49.935Z,100870.22
2023-08-25T19:12:20.320Z,100870.06
2023-08-25T19:14:51.005Z,100871.69
2023-08-25T19:17:21.419Z,100862.25
2023-08-25T19:19:52.033Z,100859.00
2023-08-25T19:22:22.509Z,100859.63
2023-08-25T19:24:52.805Z,100845.81
2023-08-25T19:27:22.961Z,100848.59
2023-08-25T19:29:53.073Z,100837.69
2023-08-25T19:32:23.225Z,100839.66
2023-08-25T19:34:53.393Z,100833.97
2023-08-25T19:37:24.950Z,100819.84
2023-08-25T19:39:56.257Z,100818.22
2023-08-25T19:42:26.193Z,100813.03
2023-08-25T19:44:57.406Z,100807.03
2023-08-25T19:47:28.042Z,100812.06
2023-08-25T19:49:58.358Z,100812.84
2023-08-25T19:52:28.942Z,100795.78
2023-08-25T19:54:59.328Z,100804.06
2023-08-25T19:57:30.033Z,100796.47
2023-08-25T20:00:00.899Z,100803.13
2023-08-25T20:02:31.461Z,100800.50
2023-08-25T20:05:01.796Z,100796.47
2023-08-25T20:07:32.909Z,100791.22
2023-08-25T20:10:03.265Z,100792.56
2023-08-25T20:12:33.638Z,100805.53
2023-08-25T20:15:04.028Z,100787.84
2023-08-25T20:17:34.448Z,100785.22
2023-08-25T20:20:05.277Z,100783.44
2023-08-25T20:22:35.554Z,100779.06
2023-08-25T20:25:06.590Z,100776.63
2023-08-25T20:27:38.274Z,100783.44
2023-08-25T20:30:11.424Z,100777.94
2023-08-25T20:32:41.751Z,100774.03
2023-08-25T20:35:12.124Z,100771.09
2023-08-25T20:37:42.425Z,100768.84
2023-08-25T20:40:13.236Z,100766.88
2023-08-25T20:42:43.600Z,100765.59
2023-08-25T20:45:14.111Z,100766.88
2023-08-25T20:47:44.456Z,100753.72
2023-08-25T20:50:14.830Z,100762.50
2023-08-25T20:52:45.268Z,100751.44
2023-08-25T20:55:15.477Z,100758.25
2023-08-25T20:57:45.938Z,100756.31
2023-08-25T21:00:16.746Z,100756.16
2023-08-25T21:02:49.784Z,100753.06
2023-08-25T21:05:20.202Z,100754.06
2023-08-25T21:07:50.454Z,100751.59
2023-08-25T21:10:21.788Z,100751.94
2023-08-25T21:12:52.586Z,100750.31
2023-08-25T21:15:22.954Z,100742.84
2023-08-25T21:17:53.331Z,100743.00
2023-08-25T21:20:25.427Z,100746.56
2023-08-25T21:22:57.750Z,100746.91
2023-08-25T21:25:28.301Z,100746.91
2023-08-25T21:27:58.858Z,100756.81
2023-08-25T21:30:29.201Z,100759.88
2023-08-25T21:32:59.604Z,100756.66
2023-08-25T21:35:30.756Z,100764.59
2023-08-25T21:38:01.452Z,100769.97
2023-08-25T21:40:31.805Z,100770.78
2023-08-25T21:43:06.126Z,100767.84
